Keefeton, Oklahoma
Current Conditions -  °F | °C
As of 12:53 PM on Thursday 27 Nov 2014 (Local Time) from KMKO Reporting Station
Clear Clear  
Wind Chill: 42°   Ceiling: Unl
Heat Index: 44°   Visibility: 10mi
Dew Point: 24°   Wind: 5mph
Humidity: 45%   Direction: 60°ENE
Pressure: 30.52"   Gusts: NA
Location:  35.6818°N, 95.3578°W
Report Text: KMKO 271853Z AUTO 06004KT 10SM CLR 07/M04 A3052 RMK AO2 SLP338 T00671044
Loading
Personal Weather Stations






























Interactive Weather Map New forecast layout! Learn more

10-Day Weather Forecast

Advertisements
Track Severe Weather on mobile